Time;durP1;ratioP1;P1;durP2;ratioP2;P2;SDS_P1;SDS_P2;PMS_P1;PMS_P2;Temp;Humidity;BMP_temperature;BMP_pressure;BME280_temperature;BME280_humidity;BME280_pressure;Samples;Min_cycle;Max_cycle;Signal;HPM_P1;HPM_P2
2021/01/03 00:01:50;;;;;;;6.80;4.68;;;22.00;99.90;;;;;;5071200;28;20393;-87
2021/01/03 00:04:17;;;;;;;5.82;4.90;;;22.00;99.90;;;;;;5059003;28;20368;-84
2021/01/03 00:06:44;;;;;;;9.02;5.68;;;21.80;99.90;;;;;;5068224;28;20401;-86
2021/01/03 00:09:12;;;;;;;6.95;6.25;;;21.70;99.90;;;;;;5070620;28;20892;-84
2021/01/03 00:11:39;;;;;;;6.30;5.70;;;21.70;99.90;;;;;;5070663;28;20422;-84
2021/01/03 00:14:07;;;;;;;6.87;6.07;;;21.80;99.90;;;;;;5071633;28;20406;-84
2021/01/03 00:16:34;;;;;;;6.72;6.00;;;21.90;99.30;;;;;;5068839;28;20393;-84
2021/01/03 00:19:01;;;;;;;7.40;6.70;;;21.90;99.50;;;;;;5070244;28;20382;-84
2021/01/03 00:21:29;;;;;;;8.75;7.00;;;22.00;99.90;;;;;;5065292;28;20920;-84
2021/01/03 00:23:56;;;;;;;7.68;7.03;;;22.20;99.90;;;;;;5071014;28;20378;-85
2021/01/03 00:26:23;;;;;;;6.78;6.18;;;22.40;99.90;;;;;;5053138;28;20379;-84
2021/01/03 00:28:50;;;;;;;7.20;6.40;;;22.60;99.40;;;;;;5050530;28;20380;-84
2021/01/03 00:31:17;;;;;;;6.47;5.93;;;22.80;99.70;;;;;;5050678;28;21724;-84
2021/01/03 00:33:44;;;;;;;6.57;5.53;;;23.00;99.30;;;;;;5070549;28;20802;-84
2021/01/03 00:36:12;;;;;;;6.53;6.00;;;22.90;97.50;;;;;;5071036;28;20426;-84
2021/01/03 00:38:39;;;;;;;6.60;5.17;;;22.90;98.60;;;;;;5057826;28;20375;-83
2021/01/03 00:41:06;;;;;;;6.47;5.85;;;23.00;97.40;;;;;;5069168;28;20389;-84
2021/01/03 00:43:33;;;;;;;5.45;4.95;;;23.10;98.20;;;;;;5067728;28;20392;-84
2021/01/03 00:46:00;;;;;;;6.68;5.80;;;23.00;96.20;;;;;;5064369;28;20406;-84
2021/01/03 00:48:27;;;;;;;6.50;5.55;;;22.90;97.70;;;;;;5068153;28;20396;-84
2021/01/03 00:50:54;;;;;;;8.30;6.70;;;22.70;97.30;;;;;;5069392;28;20412;-83
2021/01/03 00:53:21;;;;;;;7.75;6.13;;;22.60;98.20;;;;;;5068819;28;20528;-84
2021/01/03 00:55:49;;;;;;;8.70;6.78;;;22.30;98.80;;;;;;5070199;28;20382;-85
2021/01/03 00:58:16;;;;;;;7.13;6.28;;;22.30;99.80;;;;;;5069032;28;20504;-84
2021/01/03 01:00:43;;;;;;;7.13;6.43;;;22.20;99.70;;;;;;5069639;28;20382;-85
2021/01/03 01:03:10;;;;;;;7.78;7.07;;;22.10;99.90;;;;;;5067458;28;20401;-85
2021/01/03 01:05:37;;;;;;;7.68;6.43;;;22.10;99.90;;;;;;5068866;28;20754;-84
2021/01/03 01:08:05;;;;;;;7.57;6.33;;;22.10;99.90;;;;;;5068994;28;20845;-84
2021/01/03 01:10:32;;;;;;;6.55;6.05;;;22.20;99.90;;;;;;5062030;28;20489;-84
2021/01/03 01:13:01;;;;;;;7.60;6.28;;;22.40;99.90;;;;;;5065017;28;20384;-85
2021/01/03 01:15:31;;;;;;;9.85;7.13;;;22.50;99.80;;;;;;5070077;28;20397;-82
2021/01/03 01:18:05;;;;;;;8.27;6.95;;;22.60;99.90;;;;;;5070871;28;20397;-84
2021/01/03 01:20:35;;;;;;;7.70;6.90;;;22.70;99.80;;;;;;5067080;28;20455;-84
2021/01/03 01:23:03;;;;;;;7.30;6.60;;;22.70;99.00;;;;;;5066576;28;20390;-83
2021/01/03 01:25:32;;;;;;;8.37;7.60;;;22.70;99.30;;;;;;5068293;28;20405;-87
2021/01/03 01:27:59;;;;;;;9.25;6.90;;;22.60;99.10;;;;;;5069620;28;20538;-85
2021/01/03 01:30:29;;;;;;;7.75;7.03;;;22.70;98.60;;;;;;5061636;28;20404;-86
2021/01/03 01:32:57;;;;;;;8.50;6.95;;;22.80;98.80;;;;;;5076470;28;20384;-85
2021/01/03 01:35:31;;;;;;;7.18;6.65;;;22.90;97.90;;;;;;5083661;28;20873;-86
2021/01/03 01:37:58;;;;;;;8.77;7.53;;;23.00;98.20;;;;;;5060009;28;20403;-86
2021/01/03 01:40:32;;;;;;;9.23;6.97;;;23.10;98.80;;;;;;5064207;28;20795;-85
2021/01/03 01:42:59;;;;;;;6.38;5.70;;;23.30;98.20;;;;;;5068739;28;20397;-87
2021/01/03 01:45:29;;;;;;;9.18;7.45;;;23.40;96.70;;;;;;5068133;28;20381;-85
2021/01/03 01:48:04;;;;;;;7.80;7.10;;;23.50;96.40;;;;;;5067000;28;20398;-85
2021/01/03 01:50:39;;;;;;;7.18;6.47;;;23.60;96.60;;;;;;5069467;28;20398;-85
2021/01/03 01:53:12;;;;;;;10.02;7.40;;;23.90;96.50;;;;;;5059544;28;20374;-84
2021/01/03 01:55:44;;;;;;;8.60;7.57;;;24.10;95.80;;;;;;5069178;28;20699;-85
2021/01/03 01:58:25;;;;;;;8.80;7.05;;;24.10;95.10;;;;;;5050439;28;20453;-85
2021/01/03 02:01:00;;;;;;;7.70;6.22;;;24.20;95.70;;;;;;5049118;28;20366;-85
2021/01/03 02:04:11;;;;;;;7.33;6.63;;;24.00;94.70;;;;;;5075612;28;20800;-85
2021/01/03 02:06:46;;;;;;;7.03;6.43;;;23.70;95.30;;;;;;5019177;28;20383;-85
2021/01/03 02:09:26;;;;;;;7.50;6.47;;;23.70;95.80;;;;;;5043197;28;20375;-85
2021/01/03 02:12:15;;;;;;;7.15;6.45;;;23.70;95.40;;;;;;5064676;28;20426;-85
2021/01/03 02:14:43;;;;;;;7.25;6.57;;;23.70;95.40;;;;;;5067075;28;20408;-84
2021/01/03 02:17:10;;;;;;;7.03;6.43;;;23.80;95.60;;;;;;5081995;28;20450;-85
2021/01/03 02:19:38;;;;;;;7.60;6.68;;;23.90;95.20;;;;;;5071239;28;20755;-85
2021/01/03 02:22:30;;;;;;;7.13;6.53;;;24.00;95.00;;;;;;5068355;28;20900;-85
2021/01/03 02:25:09;;;;;;;5.75;5.22;;;24.10;95.10;;;;;;5068760;28;20453;-86
2021/01/03 02:28:12;;;;;;;6.15;5.30;;;24.10;93.90;;;;;;5067907;28;20723;-85
2021/01/03 02:30:41;;;;;;;4.63;4.32;;;24.10;94.60;;;;;;5063714;28;20410;-86
2021/01/03 02:33:26;;;;;;;4.55;4.07;;;24.10;95.00;;;;;;5068750;28;20465;-85
2021/01/03 02:36:00;;;;;;;3.95;3.33;;;24.00;94.20;;;;;;5069205;28;20464;-85
2021/01/03 02:38:30;;;;;;;4.38;4.07;;;23.80;94.50;;;;;;5067205;28;20394;-85
2021/01/03 02:40:58;;;;;;;4.40;4.00;;;23.80;95.70;;;;;;5066480;28;20401;-85
2021/01/03 02:43:24;;;;;;;4.15;3.70;;;23.80;94.50;;;;;;5063093;28;20386;-84
2021/01/03 02:45:53;;;;;;;4.35;4.00;;;23.90;94.90;;;;;;5067939;28;20800;-85
2021/01/03 02:48:22;;;;;;;3.80;3.50;;;23.90;95.50;;;;;;5067807;28;20396;-85
2021/01/03 02:50:50;;;;;;;4.90;3.58;;;24.00;94.70;;;;;;5070664;28;20417;-84
2021/01/03 02:53:18;;;;;;;3.50;3.20;;;24.00;94.60;;;;;;5071771;28;20433;-84
2021/01/03 02:55:46;;;;;;;3.40;3.10;;;24.00;94.90;;;;;;5064306;28;20910;-85
2021/01/03 02:58:14;;;;;;;3.22;3.03;;;24.10;94.70;;;;;;5060750;28;20383;-85
2021/01/03 03:00:41;;;;;;;3.65;3.25;;;24.10;94.70;;;;;;5057379;28;20403;-87
2021/01/03 03:03:10;;;;;;;3.75;3.13;;;24.00;94.80;;;;;;5066673;28;20476;-84
2021/01/03 03:05:37;;;;;;;3.60;3.30;;;24.00;93.90;;;;;;5052284;28;20380;-84
2021/01/03 03:08:05;;;;;;;3.10;2.90;;;24.10;94.30;;;;;;5052225;28;20379;-83
2021/01/03 03:10:32;;;;;;;3.17;2.92;;;24.20;93.40;;;;;;5052219;28;20403;-84
2021/01/03 03:13:01;;;;;;;3.40;3.10;;;24.50;94.60;;;;;;5052386;28;20391;-84
2021/01/03 03:15:33;;;;;;;2.78;2.58;;;25.00;94.10;;;;;;5051931;28;20446;-84
2021/01/03 03:18:01;;;;;;;3.13;2.80;;;25.20;93.00;;;;;;5070076;28;20413;-83
2021/01/03 03:20:28;;;;;;;3.35;3.05;;;25.30;92.70;;;;;;5066424;28;20390;-83
2021/01/03 03:22:56;;;;;;;4.47;3.30;;;25.40;92.20;;;;;;5069336;28;20397;-83
2021/01/03 03:25:23;;;;;;;4.40;3.53;;;25.60;92.20;;;;;;5066030;28;20397;-84
2021/01/03 03:27:51;;;;;;;43.00;21.93;;;25.50;90.80;;;;;;5070556;28;20374;-84
2021/01/03 03:30:21;;;;;;;42.47;18.25;;;25.40;91.50;;;;;;5071225;28;20507;-83
2021/01/03 03:32:54;;;;;;;6.40;4.47;;;25.40;91.70;;;;;;5053141;28;20445;-83
2021/01/03 03:35:28;;;;;;;44.53;23.90;;;25.60;91.90;;;;;;5072195;28;20374;-83
2021/01/03 03:37:57;;;;;;;7.00;3.60;;;25.70;91.40;;;;;;5068729;28;20405;-84
2021/01/03 03:40:24;;;;;;;16.45;9.57;;;25.80;92.00;;;;;;5071507;28;20401;-84
2021/01/03 03:42:52;;;;;;;21.27;8.45;;;25.70;91.50;;;;;;5071364;28;20452;-86
2021/01/03 03:45:19;;;;;;;62.80;25.27;;;25.40;91.80;;;;;;5073669;28;20393;-85
2021/01/03 03:47:46;;;;;;;4.55;3.60;;;25.40;92.30;;;;;;5082314;28;20406;-87
2021/01/03 03:50:22;;;;;;;13.82;7.00;;;25.50;91.70;;;;;;5084855;28;20741;-85
2021/01/03 03:52:50;;;;;;;7.13;3.85;;;25.60;91.10;;;;;;5079459;28;20458;-84
2021/01/03 03:55:17;;;;;;;20.33;8.52;;;25.40;91.40;;;;;;5084033;28;20389;-83
2021/01/03 03:57:45;;;;;;;4.70;2.55;;;25.20;92.60;;;;;;5073472;28;20406;-85
2021/01/03 04:00:18;;;;;;;10.85;5.47;;;25.00;91.20;;;;;;5070491;28;20426;-84
2021/01/03 04:02:46;;;;;;;60.78;28.17;;;24.90;91.20;;;;;;5068769;28;20429;-83
2021/01/03 04:05:16;;;;;;;55.90;20.42;;;24.90;92.80;;;;;;5068210;28;20998;-84
2021/01/03 04:07:43;;;;;;;3.03;1.70;;;24.90;93.40;;;;;;5070514;28;20397;-80
2021/01/03 04:10:11;;;;;;;4.90;1.83;;;24.90;92.70;;;;;;5071423;28;20461;-81
2021/01/03 04:12:38;;;;;;;4.45;1.90;;;24.90;93.00;;;;;;5071174;28;20741;-81
2021/01/03 04:15:08;;;;;;;4.65;1.80;;;25.10;92.80;;;;;;5070889;28;20428;-80
2021/01/03 04:17:35;;;;;;;2.55;1.70;;;25.20;93.00;;;;;;5071062;28;20382;-81
2021/01/03 04:20:04;;;;;;;4.22;2.30;;;25.20;92.90;;;;;;5071058;28;20445;-80
2021/01/03 04:22:31;;;;;;;14.75;4.38;;;25.10;92.20;;;;;;5070897;28;20465;-80
2021/01/03 04:24:59;;;;;;;3.42;1.85;;;24.80;93.20;;;;;;5070970;28;20385;-80
2021/01/03 04:27:27;;;;;;;11.32;3.38;;;24.50;93.50;;;;;;5070818;28;20378;-80
2021/01/03 04:29:54;;;;;;;5.35;1.70;;;24.30;93.70;;;;;;5070826;28;20802;-79
2021/01/03 04:32:21;;;;;;;18.75;7.45;;;24.30;94.10;;;;;;5070907;28;20408;-80
2021/01/03 04:34:48;;;;;;;8.25;3.08;;;24.30;94.10;;;;;;5070806;28;20481;-79
2021/01/03 04:37:19;;;;;;;5.50;1.60;;;24.20;94.10;;;;;;5071087;28;20386;-79
2021/01/03 04:39:46;;;;;;;5.40;1.90;;;24.10;94.60;;;;;;5069933;28;20414;-80
2021/01/03 04:42:18;;;;;;;4.27;2.07;;;24.10;95.10;;;;;;5070190;28;20730;-79
2021/01/03 04:44:49;;;;;;;3.88;1.60;;;24.10;95.00;;;;;;5070468;28;20394;-78
2021/01/03 04:47:24;;;;;;;2.97;1.80;;;24.00;94.60;;;;;;5068198;28;20397;-79
2021/01/03 04:50:07;;;;;;;3.70;1.73;;;23.90;95.00;;;;;;5069480;28;20765;-79
2021/01/03 04:52:54;;;;;;;3.38;1.65;;;24.00;94.90;;;;;;5056690;28;20824;-79
2021/01/03 04:55:22;;;;;;;4.70;1.60;;;24.10;95.90;;;;;;5054344;28;20397;-78
2021/01/03 04:57:52;;;;;;;4.43;1.70;;;24.10;95.50;;;;;;5058865;28;20722;-79
2021/01/03 05:00:19;;;;;;;5.95;1.77;;;24.20;95.20;;;;;;5063554;28;20397;-77
2021/01/03 05:03:01;;;;;;;6.50;2.20;;;24.10;95.00;;;;;;5060122;28;20406;-80
2021/01/03 05:05:46;;;;;;;5.63;2.00;;;23.90;95.00;;;;;;5054032;28;20805;-80
2021/01/03 05:08:35;;;;;;;7.32;2.25;;;23.80;95.90;;;;;;5069871;28;20370;-81
2021/01/03 05:11:13;;;;;;;6.55;1.88;;;23.90;95.00;;;;;;5069125;28;20394;-80
2021/01/03 05:14:07;;;;;;;7.05;1.90;;;24.10;95.20;;;;;;5068430;28;20390;-79
2021/01/03 05:16:34;;;;;;;6.20;1.90;;;24.10;95.40;;;;;;5069777;28;20517;-79
2021/01/03 05:19:01;;;;;;;5.53;2.30;;;24.10;95.10;;;;;;5069754;28;20358;-81
2021/01/03 05:21:48;;;;;;;7.68;2.17;;;24.00;94.90;;;;;;5068944;28;20398;-81
2021/01/03 05:24:15;;;;;;;6.25;2.10;;;23.80;95.40;;;;;;5063236;28;20391;-80
2021/01/03 05:26:43;;;;;;;10.75;2.10;;;23.50;95.80;;;;;;5065631;28;20409;-82
2021/01/03 05:29:21;;;;;;;5.40;1.83;;;23.40;96.50;;;;;;5068285;28;20876;-83
2021/01/03 05:32:24;;;;;;;8.60;1.90;;;23.40;96.40;;;;;;5049513;28;20485;-83
2021/01/03 05:34:51;;;;;;;4.93;1.60;;;23.50;96.30;;;;;;5067371;28;20424;-81
2021/01/03 05:37:24;;;;;;;7.57;2.10;;;23.50;96.50;;;;;;5063764;28;20498;-80
2021/01/03 05:39:52;;;;;;;8.20;1.98;;;23.60;97.10;;;;;;5052659;28;20483;-82
2021/01/03 05:42:19;;;;;;;7.40;1.70;;;23.80;96.00;;;;;;5059619;28;20731;-81
2021/01/03 05:45:03;;;;;;;7.07;1.83;;;24.00;95.90;;;;;;5063239;28;20400;-82
2021/01/03 05:47:54;;;;;;;7.22;1.73;;;24.10;95.50;;;;;;5067834;28;20802;-81
2021/01/03 05:50:37;;;;;;;5.40;1.40;;;24.00;96.00;;;;;;5068180;28;20390;-85
2021/01/03 05:53:07;;;;;;;6.70;2.10;;;24.00;95.60;;;;;;5068393;28;20428;-81
2021/01/03 05:55:37;;;;;;;5.78;1.60;;;23.90;95.90;;;;;;5067383;28;20398;-82
2021/01/03 05:58:23;;;;;;;6.45;1.60;;;23.80;96.00;;;;;;5066807;28;20547;-83
2021/01/03 06:00:50;;;;;;;5.23;1.57;;;23.70;95.90;;;;;;5068688;28;20390;-84
2021/01/03 06:03:27;;;;;;;6.00;1.45;;;23.70;95.90;;;;;;5064877;28;20385;-83
2021/01/03 06:06:02;;;;;;;6.93;1.75;;;23.70;96.10;;;;;;5064073;28;20469;-82
2021/01/03 06:08:31;;;;;;;7.13;2.10;;;23.70;96.40;;;;;;5068350;28;20442;-82
2021/01/03 06:11:12;;;;;;;7.75;1.70;;;23.80;96.20;;;;;;5067267;28;21196;-82
2021/01/03 06:13:59;;;;;;;6.97;1.70;;;23.90;95.80;;;;;;5057734;28;20874;-83
2021/01/03 06:16:41;;;;;;;4.28;1.40;;;23.80;96.00;;;;;;5066359;28;20381;-83
2021/01/03 06:19:27;;;;;;;7.18;1.60;;;23.90;96.20;;;;;;5062951;28;20450;-83
2021/01/03 06:21:55;;;;;;;5.47;1.50;;;23.90;96.00;;;;;;5048948;28;20892;-83
2021/01/03 06:24:28;;;;;;;6.82;1.88;;;23.90;95.80;;;;;;5062386;28;20523;-82
2021/01/03 06:26:57;;;;;;;6.60;1.70;;;23.90;96.10;;;;;;5073113;28;20378;-83
2021/01/03 06:29:39;;;;;;;6.32;1.55;;;23.80;96.00;;;;;;5072832;28;20773;-83
2021/01/03 06:32:36;;;;;;;4.90;1.65;;;23.80;96.10;;;;;;5072999;28;20408;-82
2021/01/03 06:35:22;;;;;;;7.15;1.55;;;23.70;96.20;;;;;;5072993;28;20370;-82
2021/01/03 06:38:00;;;;;;;5.15;1.42;;;23.80;96.40;;;;;;5062312;28;20409;-82
2021/01/03 06:40:38;;;;;;;6.70;1.75;;;23.80;96.20;;;;;;5064207;28;20785;-81
2021/01/03 06:43:19;;;;;;;5.93;1.90;;;23.70;96.30;;;;;;5071818;28;20484;-83
2021/01/03 06:46:27;;;;;;;4.03;1.60;;;23.70;96.10;;;;;;5072276;28;20394;-82
2021/01/03 06:48:57;;;;;;;7.28;2.03;;;23.60;96.40;;;;;;5015087;28;20470;-82
2021/01/03 06:51:46;;;;;;;9.25;1.90;;;23.60;96.70;;;;;;5066409;28;20493;-81
2021/01/03 06:54:43;;;;;;;5.85;1.80;;;23.60;96.70;;;;;;5064544;28;20394;-82
2021/01/03 06:57:32;;;;;;;6.72;1.70;;;23.60;96.30;;;;;;5069215;28;20491;-82
2021/01/03 07:00:17;;;;;;;7.93;1.92;;;23.50;96.60;;;;;;5073032;28;20424;-82
2021/01/03 07:03:10;;;;;;;5.35;1.80;;;23.50;97.40;;;;;;5073011;28;20366;-82
2021/01/03 07:05:37;;;;;;;5.43;1.70;;;23.50;96.90;;;;;;5065238;28;20386;-82
2021/01/03 07:08:08;;;;;;;6.00;1.60;;;23.50;97.20;;;;;;5072632;28;20381;-82
2021/01/03 07:10:41;;;;;;;5.53;1.67;;;23.60;96.80;;;;;;5072109;28;20930;-82
2021/01/03 07:13:29;;;;;;;4.80;1.95;;;23.60;96.80;;;;;;5071967;28;20417;-82
2021/01/03 07:15:58;;;;;;;4.47;1.40;;;23.60;96.60;;;;;;5071994;28;20519;-83
2021/01/03 07:18:39;;;;;;;7.18;1.92;;;23.60;96.30;;;;;;5072219;28;20405;-81
2021/01/03 07:21:07;;;;;;;5.82;1.90;;;23.60;96.40;;;;;;5071781;28;20808;-82
2021/01/03 07:23:40;;;;;;;6.50;1.60;;;23.50;96.70;;;;;;5071913;28;20456;-83
2021/01/03 07:26:22;;;;;;;4.55;1.50;;;23.50;96.70;;;;;;5071878;28;20439;-82
2021/01/03 07:29:01;;;;;;;8.40;1.90;;;23.50;96.80;;;;;;5071844;28;20392;-82
2021/01/03 07:31:49;;;;;;;6.47;1.90;;;23.40;97.40;;;;;;5071670;28;20516;-83
2021/01/03 07:34:32;;;;;;;11.02;1.90;;;23.40;97.60;;;;;;5071157;28;20374;-83
2021/01/03 07:37:20;;;;;;;3.73;1.50;;;23.30;97.50;;;;;;5071933;28;20618;-83
2021/01/03 07:40:14;;;;;;;9.20;2.10;;;23.20;97.50;;;;;;5071416;28;20424;-83
2021/01/03 07:42:45;;;;;;;7.47;1.80;;;23.20;97.80;;;;;;5066086;28;20929;-84
2021/01/03 07:45:19;;;;;;;5.23;1.70;;;23.20;97.70;;;;;;5060249;28;20421;-84
2021/01/03 07:47:53;;;;;;;8.35;1.80;;;23.10;97.80;;;;;;5057497;28;20742;-84
2021/01/03 07:50:31;;;;;;;6.10;1.70;;;23.10;98.00;;;;;;5070556;28;20477;-84
2021/01/03 07:53:17;;;;;;;4.63;1.45;;;23.20;98.20;;;;;;5067229;28;20429;-84
2021/01/03 07:55:45;;;;;;;5.80;1.83;;;23.20;97.40;;;;;;5070650;28;20460;-82
2021/01/03 07:58:18;;;;;;;7.57;1.90;;;23.10;97.40;;;;;;5071125;28;20425;-82
2021/01/03 08:00:50;;;;;;;5.72;1.42;;;23.10;97.40;;;;;;5071526;28;20378;-82
2021/01/03 08:03:21;;;;;;;4.63;1.48;;;23.00;97.60;;;;;;5071009;28;20385;-84
2021/01/03 08:05:49;;;;;;;7.07;1.60;;;23.00;97.70;;;;;;5070034;28;20392;-83
2021/01/03 08:08:18;;;;;;;6.22;1.33;;;23.00;97.60;;;;;;5071730;28;20386;-85
2021/01/03 08:10:50;;;;;;;8.25;1.80;;;23.00;97.70;;;;;;5071346;28;20448;-82
2021/01/03 08:13:30;;;;;;;8.27;2.10;;;22.90;97.90;;;;;;5070676;28;20405;-84
2021/01/03 08:15:59;;;;;;;5.90;1.70;;;22.90;98.20;;;;;;5068313;28;20877;-84
2021/01/03 08:18:31;;;;;;;4.40;1.37;;;22.80;97.80;;;;;;5059863;28;20406;-84
2021/01/03 08:21:16;;;;;;;7.10;1.60;;;22.80;97.80;;;;;;5070902;28;20370;-83
2021/01/03 08:23:44;;;;;;;5.47;1.10;;;22.80;97.70;;;;;;5071066;28;20459;-83
2021/01/03 08:26:17;;;;;;;5.63;1.10;;;22.70;97.60;;;;;;5072770;28;20381;-83
2021/01/03 08:28:57;;;;;;;6.93;1.25;;;22.60;97.60;;;;;;5072109;28;20386;-86
2021/01/03 08:31:26;;;;;;;7.10;1.20;;;22.60;97.80;;;;;;5052154;28;20406;-84
2021/01/03 08:33:55;;;;;;;6.47;1.23;;;22.60;97.90;;;;;;5068102;28;20382;-83
2021/01/03 08:36:34;;;;;;;8.57;1.30;;;22.50;97.90;;;;;;5074261;28;20382;-82
2021/01/03 08:39:10;;;;;;;4.40;1.10;;;22.50;98.20;;;;;;5073494;28;20436;-83
2021/01/03 08:41:48;;;;;;;4.70;1.02;;;22.50;97.50;;;;;;5065360;28;20407;-85
2021/01/03 08:44:34;;;;;;;7.15;1.10;;;22.40;97.50;;;;;;5068509;28;20459;-83
2021/01/03 08:47:08;;;;;;;9.00;1.43;;;22.40;97.70;;;;;;5065939;28;20397;-83
2021/01/03 08:49:35;;;;;;;4.30;1.00;;;22.40;97.90;;;;;;5047572;28;20851;-84
2021/01/03 08:52:20;;;;;;;5.70;1.20;;;22.30;98.10;;;;;;5062148;28;20414;-86
2021/01/03 08:55:04;;;;;;;5.03;1.35;;;22.20;98.10;;;;;;5067619;28;20393;-86
2021/01/03 08:57:32;;;;;;;6.53;1.52;;;22.20;98.20;;;;;;5065928;28;20481;-86
2021/01/03 08:59:59;;;;;;;3.85;1.13;;;22.20;98.20;;;;;;5066176;28;20388;-84
2021/01/03 09:02:28;;;;;;;5.85;1.30;;;22.10;98.50;;;;;;5065557;28;20470;-85
2021/01/03 09:05:07;;;;;;;6.68;1.45;;;22.00;98.90;;;;;;5065847;28;20398;-85
2021/01/03 09:07:38;;;;;;;8.38;1.85;;;22.00;99.00;;;;;;5063532;28;20397;-84
2021/01/03 09:10:08;;;;;;;5.28;1.60;;;21.90;99.30;;;;;;5063575;28;20447;-84
2021/01/03 09:12:45;;;;;;;10.45;2.00;;;21.90;99.40;;;;;;5066968;28;20409;-85
2021/01/03 09:18:32;;;;;;;7.20;1.80;;;21.70;99.70;;;;;;5066214;28;20444;-86
2021/01/03 09:21:09;;;;;;;7.93;1.52;;;21.80;99.70;;;;;;5059539;28;20796;-84
2021/01/03 09:23:46;;;;;;;6.32;1.85;;;21.90;99.80;;;;;;5049108;28;20882;-85
2021/01/03 09:26:16;;;;;;;6.45;1.55;;;21.70;99.60;;;;;;5056998;28;21104;-86
2021/01/03 09:28:44;;;;;;;7.78;1.48;;;21.60;99.70;;;;;;5055971;28;20378;-85
2021/01/03 09:31:15;;;;;;;5.35;1.58;;;21.70;99.70;;;;;;5067876;28;20407;-85
2021/01/03 09:33:53;;;;;;;7.50;1.95;;;21.60;99.70;;;;;;5059046;28;20379;-84
2021/01/03 09:36:44;;;;;;;6.53;1.58;;;21.60;99.80;;;;;;5067721;28;20362;-82
2021/01/03 09:39:17;;;;;;;6.88;1.85;;;21.50;99.90;;;;;;5067006;28;20488;-84
2021/01/03 09:42:02;;;;;;;7.47;2.30;;;21.50;99.90;;;;;;5067844;28;20370;-84
2021/01/03 09:45:02;;;;;;;7.97;2.17;;;21.50;99.90;;;;;;5067627;28;20373;-85
2021/01/03 09:47:41;;;;;;;6.95;2.60;;;21.40;99.90;;;;;;5067264;28;20378;-86
2021/01/03 09:50:17;;;;;;;10.27;2.90;;;21.30;99.90;;;;;;5063960;28;20413;-84
2021/01/03 09:53:13;;;;;;;7.37;1.87;;;21.30;99.90;;;;;;5064578;28;20420;-86
2021/01/03 09:55:52;;;;;;;7.07;1.80;;;21.30;99.90;;;;;;5048499;28;20399;-87
2021/01/03 09:58:20;;;;;;;8.75;1.50;;;21.30;99.90;;;;;;5054955;28;20386;-83
2021/01/03 10:00:53;;;;;;;6.03;1.58;;;21.30;99.90;;;;;;5065664;28;20429;-84
2021/01/03 10:03:36;;;;;;;6.07;1.20;;;21.30;99.90;;;;;;5065530;28;20390;-84
2021/01/03 10:06:13;;;;;;;9.27;1.50;;;21.30;99.90;;;;;;5066076;28;20906;-83
2021/01/03 10:08:41;;;;;;;6.07;1.60;;;21.20;99.90;;;;;;5065511;28;20480;-84
2021/01/03 10:11:11;;;;;;;8.07;1.40;;;21.20;99.90;;;;;;5058159;28;20455;-82
2021/01/03 10:13:39;;;;;;;5.50;1.50;;;21.20;99.90;;;;;;5063293;28;21203;-82
2021/01/03 10:16:25;;;;;;;10.27;2.00;;;21.10;99.90;;;;;;5061225;28;20413;-83
2021/01/03 10:18:52;;;;;;;10.07;1.70;;;21.20;99.90;;;;;;5063978;28;20825;-82
2021/01/03 10:21:37;;;;;;;10.32;1.50;;;21.20;99.90;;;;;;5071609;28;21251;-83
2021/01/03 10:24:24;;;;;;;8.80;1.70;;;21.20;99.90;;;;;;5065459;28;20415;-82
2021/01/03 10:27:06;;;;;;;10.57;1.83;;;21.10;99.90;;;;;;5079762;28;20376;-83
2021/01/03 10:29:34;;;;;;;10.60;1.70;;;21.10;99.90;;;;;;5063918;28;20399;-84
2021/01/03 10:32:01;;;;;;;5.47;1.77;;;21.10;99.90;;;;;;5054650;28;20463;-85
2021/01/03 10:34:28;;;;;;;9.05;1.60;;;21.00;99.90;;;;;;5053776;28;20754;-84
2021/01/03 10:37:00;;;;;;;10.65;1.75;;;21.00;99.90;;;;;;5048544;28;20380;-84
2021/01/03 10:39:30;;;;;;;11.65;1.58;;;21.00;99.90;;;;;;5056364;28;20385;-84
2021/01/03 10:41:58;;;;;;;9.63;1.65;;;21.00;99.90;;;;;;5066242;28;20406;-83
2021/01/03 10:44:28;;;;;;;9.30;1.60;;;20.90;99.90;;;;;;5064856;28;20408;-84
2021/01/03 10:46:55;;;;;;;11.38;1.65;;;20.90;99.90;;;;;;5056481;28;20493;-83
2021/01/03 10:49:23;;;;;;;6.22;1.30;;;20.90;99.90;;;;;;5035810;28;20366;-83
2021/01/03 10:51:53;;;;;;;7.85;1.83;;;20.90;99.90;;;;;;5065131;28;20797;-83
2021/01/03 10:54:26;;;;;;;12.27;1.88;;;20.90;99.90;;;;;;5065572;28;20389;-84
2021/01/03 10:56:55;;;;;;;9.32;1.52;;;20.80;99.90;;;;;;5065714;28;20738;-85
2021/01/03 10:59:24;;;;;;;9.65;2.28;;;20.90;99.90;;;;;;5065628;28;20512;-84
2021/01/03 11:01:54;;;;;;;8.65;1.98;;;20.90;99.90;;;;;;5065302;28;20504;-84
2021/01/03 11:04:23;;;;;;;7.90;1.37;;;20.80;99.90;;;;;;5065369;28;20466;-84
2021/01/03 11:06:54;;;;;;;8.45;1.70;;;20.80;99.90;;;;;;5065349;28;20378;-83
2021/01/03 11:09:26;;;;;;;7.90;1.63;;;20.80;99.90;;;;;;5065949;28;20381;-85
2021/01/03 11:12:08;;;;;;;11.25;1.98;;;20.80;99.90;;;;;;5069479;28;20406;-84
2021/01/03 11:14:36;;;;;;;9.63;2.10;;;20.80;99.90;;;;;;5068395;28;20386;-84
2021/01/03 11:17:12;;;;;;;10.02;1.70;;;20.80;99.90;;;;;;5068042;28;20390;-83
2021/01/03 11:19:40;;;;;;;5.40;1.83;;;20.80;99.90;;;;;;5068842;28;20385;-83
2021/01/03 11:22:09;;;;;;;8.83;2.13;;;20.80;99.90;;;;;;5068262;28;20458;-83
2021/01/03 11:24:37;;;;;;;9.10;1.80;;;20.80;99.90;;;;;;5067131;28;20488;-83
2021/01/03 11:27:07;;;;;;;5.43;1.67;;;20.80;99.90;;;;;;5066584;28;20936;-83
2021/01/03 11:29:34;;;;;;;8.90;1.90;;;20.80;99.90;;;;;;5048788;28;20938;-83
2021/01/03 11:32:02;;;;;;;4.70;1.60;;;20.80;99.90;;;;;;5066495;28;20393;-84
2021/01/03 11:34:38;;;;;;;6.93;1.70;;;20.80;99.90;;;;;;5068334;28;20459;-83
2021/01/03 11:37:09;;;;;;;9.75;2.08;;;20.70;99.90;;;;;;5068876;28;20389;-83
2021/01/03 11:39:42;;;;;;;8.75;1.85;;;20.70;99.90;;;;;;5067662;28;20398;-84
2021/01/03 11:42:15;;;;;;;5.38;1.60;;;20.70;99.90;;;;;;5063114;28;20408;-83
2021/01/03 11:44:44;;;;;;;12.07;2.15;;;20.70;99.90;;;;;;5068635;28;20420;-83
2021/01/03 11:47:14;;;;;;;8.45;2.13;;;20.80;99.90;;;;;;5068545;28;20393;-82
2021/01/03 11:49:45;;;;;;;5.90;1.73;;;20.80;99.90;;;;;;5068354;28;20363;-83
2021/01/03 11:52:12;;;;;;;6.72;1.73;;;20.80;99.90;;;;;;5067622;28;20521;-84
2021/01/03 11:54:39;;;;;;;6.68;1.60;;;20.80;99.90;;;;;;5050374;28;21183;-83
2021/01/03 11:57:07;;;;;;;7.00;1.70;;;20.80;99.90;;;;;;5067268;28;20401;-83
2021/01/03 11:59:34;;;;;;;8.40;1.87;;;20.80;99.90;;;;;;5066668;28;20901;-83
2021/01/03 12:02:08;;;;;;;10.52;2.10;;;20.80;99.90;;;;;;5066039;28;20478;-84
2021/01/03 12:04:38;;;;;;;4.60;1.60;;;20.80;99.90;;;;;;5064154;28;20386;-84
2021/01/03 12:07:08;;;;;;;6.30;1.60;;;20.80;99.90;;;;;;5068527;28;20521;-84
2021/01/03 12:09:35;;;;;;;8.25;2.20;;;20.70;99.90;;;;;;5056551;28;20465;-83
2021/01/03 12:12:05;;;;;;;9.18;1.70;;;20.60;99.90;;;;;;5060652;28;20413;-83
2021/01/03 12:14:33;;;;;;;6.47;1.70;;;20.60;99.90;;;;;;5068797;28;20411;-84
2021/01/03 12:17:03;;;;;;;7.57;1.77;;;20.60;99.90;;;;;;5064907;28;20389;-82
2021/01/03 12:19:31;;;;;;;9.82;1.83;;;20.60;99.90;;;;;;5056126;28;20376;-84
2021/01/03 12:22:00;;;;;;;6.93;1.67;;;20.60;99.90;;;;;;5065399;28;20937;-84
2021/01/03 12:24:27;;;;;;;6.30;2.13;;;20.70;99.90;;;;;;5067481;28;20372;-84
2021/01/03 12:26:54;;;;;;;6.67;1.77;;;20.60;99.90;;;;;;5067253;28;20398;-83
2021/01/03 12:29:23;;;;;;;10.57;1.85;;;20.50;99.90;;;;;;5068703;28;20465;-83
2021/01/03 12:31:53;;;;;;;8.85;2.00;;;20.50;99.90;;;;;;5069016;28;20893;-83
2021/01/03 12:34:22;;;;;;;8.15;1.58;;;20.40;99.90;;;;;;5062263;28;20405;-84
2021/01/03 12:36:50;;;;;;;10.18;1.80;;;20.30;99.90;;;;;;5068748;28;20398;-83
2021/01/03 12:39:19;;;;;;;7.75;1.80;;;20.20;99.90;;;;;;5070263;28;20853;-83
2021/01/03 12:41:47;;;;;;;7.45;1.98;;;20.20;99.90;;;;;;5061759;28;20413;-83
2021/01/03 12:44:14;;;;;;;6.32;1.70;;;20.20;99.90;;;;;;5069019;28;20386;-83
2021/01/03 12:46:42;;;;;;;8.20;2.00;;;20.30;99.90;;;;;;5066413;28;20730;-84
2021/01/03 12:49:11;;;;;;;7.40;1.58;;;20.20;99.90;;;;;;5068720;28;20386;-83
2021/01/03 12:51:39;;;;;;;7.22;1.80;;;20.20;99.90;;;;;;5070298;28;20496;-83
2021/01/03 12:54:07;;;;;;;7.43;1.80;;;20.20;99.90;;;;;;5064574;28;20443;-83
2021/01/03 12:56:36;;;;;;;8.00;2.03;;;20.20;99.90;;;;;;5065843;28;20390;-84
2021/01/03 12:59:04;;;;;;;6.25;1.77;;;20.10;99.90;;;;;;5069609;28;20387;-83
2021/01/03 13:01:34;;;;;;;6.07;1.77;;;20.10;99.90;;;;;;5068289;28;20411;-83
2021/01/03 13:04:03;;;;;;;9.15;2.15;;;20.00;99.90;;;;;;5050044;28;20834;-83
2021/01/03 13:06:32;;;;;;;6.10;1.90;;;20.00;99.90;;;;;;5068458;28;20388;-84
2021/01/03 13:09:00;;;;;;;6.75;1.80;;;20.00;99.90;;;;;;5069687;28;20543;-84
2021/01/03 13:11:27;;;;;;;7.97;1.85;;;20.10;99.90;;;;;;5069119;28;20402;-83
2021/01/03 13:13:54;;;;;;;8.52;2.13;;;20.10;99.90;;;;;;5068113;28;20384;-83
2021/01/03 13:16:21;;;;;;;9.38;2.20;;;20.10;99.90;;;;;;5067997;28;20394;-84
2021/01/03 13:18:51;;;;;;;9.93;2.05;;;20.10;99.90;;;;;;5067507;28;20451;-83